Terminal Aerodrome Forecast
Issued by NWS Amarillo, TX

Current Version | Previous Version | Text Only | Print | Product List | Glossary On
Versions: 1 2 3 4 5 6 7 8 9 10 11 12 13
000
FTUS44 KAMA 252300
TAFGUY
TAF
KGUY 252336Z 2600/2624 21012KT P6SM FEW110
     FM261300 27010KT P6SM SCT120
     FM261900 20009KT P6SM SCT110=

USA.gov is the U.S. government's official web portal to all federal, state and local government web resources and services.